sensor_id;sensor_type;location;lat;lon;timestamp;P1;durP1;ratioP1;P2;durP2;ratioP2
26391;SDS011;14572;43.120;1.178;2022-09-09T00:00:18;2.90;;;1.15;;
26391;SDS011;14572;43.120;1.178;2022-09-09T00:02:50;4.60;;;1.17;;
26391;SDS011;14572;43.120;1.178;2022-09-09T00:05:23;4.53;;;1.30;;
26391;SDS011;14572;43.120;1.178;2022-09-09T00:07:57;3.13;;;1.45;;
26391;SDS011;14572;43.120;1.178;2022-09-09T00:10:31;4.68;;;2.00;;
26391;SDS011;14572;43.120;1.178;2022-09-09T00:13:02;5.07;;;1.90;;
26391;SDS011;14572;43.120;1.178;2022-09-09T00:15:36;5.57;;;1.60;;
26391;SDS011;14572;43.120;1.178;2022-09-09T00:18:08;3.28;;;1.48;;
26391;SDS011;14572;43.120;1.178;2022-09-09T00:20:43;5.18;;;1.42;;
26391;SDS011;14572;43.120;1.178;2022-09-09T00:23:18;2.65;;;1.73;;
26391;SDS011;14572;43.120;1.178;2022-09-09T00:25:49;4.45;;;1.50;;
26391;SDS011;14572;43.120;1.178;2022-09-09T00:28:23;3.78;;;1.48;;
26391;SDS011;14572;43.120;1.178;2022-09-09T00:30:52;4.00;;;1.58;;
26391;SDS011;14572;43.120;1.178;2022-09-09T00:33:20;4.60;;;1.30;;
26391;SDS011;14572;43.120;1.178;2022-09-09T00:35:50;5.70;;;1.50;;
26391;SDS011;14572;43.120;1.178;2022-09-09T00:38:19;3.47;;;1.40;;
26391;SDS011;14572;43.120;1.178;2022-09-09T00:40:51;4.35;;;1.48;;
26391;SDS011;14572;43.120;1.178;2022-09-09T00:43:25;9.18;;;1.52;;
26391;SDS011;14572;43.120;1.178;2022-09-09T00:46:14;4.28;;;1.20;;
26391;SDS011;14572;43.120;1.178;2022-09-09T00:48:51;3.15;;;1.38;;
26391;SDS011;14572;43.120;1.178;2022-09-09T00:51:25;3.17;;;1.25;;
26391;SDS011;14572;43.120;1.178;2022-09-09T00:54:00;7.65;;;1.40;;
26391;SDS011;14572;43.120;1.178;2022-09-09T00:56:43;2.85;;;1.30;;
26391;SDS011;14572;43.120;1.178;2022-09-09T00:59:16;2.80;;;1.50;;
26391;SDS011;14572;43.120;1.178;2022-09-09T01:01:51;3.58;;;1.13;;
26391;SDS011;14572;43.120;1.178;2022-09-09T01:04:21;4.03;;;1.70;;
26391;SDS011;14572;43.120;1.178;2022-09-09T01:06:55;4.75;;;1.60;;
26391;SDS011;14572;43.120;1.178;2022-09-09T01:09:29;3.13;;;1.50;;
26391;SDS011;14572;43.120;1.178;2022-09-09T01:12:07;5.40;;;1.60;;
26391;SDS011;14572;43.120;1.178;2022-09-09T01:14:39;2.90;;;1.50;;
26391;SDS011;14572;43.120;1.178;2022-09-09T01:17:11;7.10;;;1.63;;
26391;SDS011;14572;43.120;1.178;2022-09-09T01:19:45;5.22;;;1.65;;
26391;SDS011;14572;43.120;1.178;2022-09-09T01:22:33;3.80;;;1.60;;
26391;SDS011;14572;43.120;1.178;2022-09-09T01:25:15;7.22;;;1.52;;
26391;SDS011;14572;43.120;1.178;2022-09-09T01:27:48;2.20;;;1.67;;
26391;SDS011;14572;43.120;1.178;2022-09-09T01:30:17;6.10;;;1.90;;
26391;SDS011;14572;43.120;1.178;2022-09-09T01:32:45;5.03;;;1.58;;
26391;SDS011;14572;43.120;1.178;2022-09-09T01:35:15;5.40;;;1.80;;
26391;SDS011;14572;43.120;1.178;2022-09-09T01:37:44;1.98;;;1.42;;
26391;SDS011;14572;43.120;1.178;2022-09-09T01:40:12;3.28;;;1.73;;
26391;SDS011;14572;43.120;1.178;2022-09-09T01:42:39;4.63;;;1.60;;
26391;SDS011;14572;43.120;1.178;2022-09-09T01:45:08;3.40;;;1.45;;
26391;SDS011;14572;43.120;1.178;2022-09-09T01:47:35;2.28;;;1.15;;
26391;SDS011;14572;43.120;1.178;2022-09-09T01:50:03;2.28;;;1.17;;
26391;SDS011;14572;43.120;1.178;2022-09-09T01:52:30;2.90;;;1.60;;
26391;SDS011;14572;43.120;1.178;2022-09-09T01:54:59;3.83;;;1.33;;
26391;SDS011;14572;43.120;1.178;2022-09-09T01:57:27;6.35;;;1.48;;
26391;SDS011;14572;43.120;1.178;2022-09-09T02:00:00;4.40;;;1.40;;
26391;SDS011;14572;43.120;1.178;2022-09-09T02:02:35;7.30;;;1.77;;
26391;SDS011;14572;43.120;1.178;2022-09-09T02:05:06;4.25;;;1.50;;
26391;SDS011;14572;43.120;1.178;2022-09-09T02:07:40;6.80;;;1.40;;
26391;SDS011;14572;43.120;1.178;2022-09-09T02:10:09;4.20;;;1.75;;
26391;SDS011;14572;43.120;1.178;2022-09-09T02:12:39;6.03;;;1.42;;
26391;SDS011;14572;43.120;1.178;2022-09-09T02:15:11;6.45;;;1.48;;
26391;SDS011;14572;43.120;1.178;2022-09-09T02:17:43;2.47;;;1.38;;
26391;SDS011;14572;43.120;1.178;2022-09-09T02:20:12;3.67;;;1.58;;
26391;SDS011;14572;43.120;1.178;2022-09-09T02:22:41;4.22;;;1.42;;
26391;SDS011;14572;43.120;1.178;2022-09-09T02:25:10;4.95;;;1.85;;
26391;SDS011;14572;43.120;1.178;2022-09-09T02:27:39;3.67;;;1.75;;
26391;SDS011;14572;43.120;1.178;2022-09-09T02:30:07;2.83;;;1.67;;
26391;SDS011;14572;43.120;1.178;2022-09-09T02:32:35;2.83;;;1.70;;
26391;SDS011;14572;43.120;1.178;2022-09-09T02:35:07;3.40;;;1.70;;
26391;SDS011;14572;43.120;1.178;2022-09-09T02:37:37;2.75;;;1.88;;
26391;SDS011;14572;43.120;1.178;2022-09-09T02:40:06;4.53;;;1.60;;
26391;SDS011;14572;43.120;1.178;2022-09-09T02:42:38;3.08;;;1.45;;
26391;SDS011;14572;43.120;1.178;2022-09-09T02:45:06;4.10;;;1.60;;
26391;SDS011;14572;43.120;1.178;2022-09-09T02:47:34;4.07;;;1.50;;
26391;SDS011;14572;43.120;1.178;2022-09-09T02:50:06;3.90;;;1.52;;
26391;SDS011;14572;43.120;1.178;2022-09-09T02:52:39;8.18;;;1.90;;
26391;SDS011;14572;43.120;1.178;2022-09-09T02:55:15;5.68;;;1.30;;
26391;SDS011;14572;43.120;1.178;2022-09-09T02:57:46;2.65;;;1.38;;
26391;SDS011;14572;43.120;1.178;2022-09-09T03:00:14;4.20;;;1.70;;
26391;SDS011;14572;43.120;1.178;2022-09-09T03:02:41;4.57;;;1.90;;
26391;SDS011;14572;43.120;1.178;2022-09-09T03:05:10;3.45;;;1.52;;
26391;SDS011;14572;43.120;1.178;2022-09-09T03:07:38;3.42;;;2.08;;
26391;SDS011;14572;43.120;1.178;2022-09-09T03:10:06;10.48;;;1.70;;
26391;SDS011;14572;43.120;1.178;2022-09-09T03:12:35;5.93;;;1.63;;
26391;SDS011;14572;43.120;1.178;2022-09-09T03:15:04;3.40;;;1.52;;
26391;SDS011;14572;43.120;1.178;2022-09-09T03:17:31;7.85;;;2.00;;
26391;SDS011;14572;43.120;1.178;2022-09-09T03:19:59;2.65;;;1.85;;
26391;SDS011;14572;43.120;1.178;2022-09-09T03:22:28;6.28;;;1.50;;
26391;SDS011;14572;43.120;1.178;2022-09-09T03:24:55;6.07;;;2.75;;
26391;SDS011;14572;43.120;1.178;2022-09-09T03:27:22;3.38;;;1.80;;
26391;SDS011;14572;43.120;1.178;2022-09-09T03:29:49;5.68;;;2.17;;
26391;SDS011;14572;43.120;1.178;2022-09-09T03:32:16;4.55;;;1.55;;
26391;SDS011;14572;43.120;1.178;2022-09-09T03:34:43;3.40;;;1.75;;
26391;SDS011;14572;43.120;1.178;2022-09-09T03:37:12;2.78;;;1.60;;
26391;SDS011;14572;43.120;1.178;2022-09-09T03:39:41;3.25;;;1.52;;
26391;SDS011;14572;43.120;1.178;2022-09-09T03:42:08;4.30;;;1.73;;
26391;SDS011;14572;43.120;1.178;2022-09-09T03:44:36;5.43;;;1.60;;
26391;SDS011;14572;43.120;1.178;2022-09-09T03:47:03;4.63;;;1.48;;
26391;SDS011;14572;43.120;1.178;2022-09-09T03:49:31;6.45;;;1.83;;
26391;SDS011;14572;43.120;1.178;2022-09-09T03:51:58;5.65;;;1.45;;
26391;SDS011;14572;43.120;1.178;2022-09-09T03:54:26;4.40;;;1.58;;
26391;SDS011;14572;43.120;1.178;2022-09-09T03:56:54;4.53;;;1.55;;
26391;SDS011;14572;43.120;1.178;2022-09-09T03:59:21;5.00;;;1.83;;
26391;SDS011;14572;43.120;1.178;2022-09-09T04:01:48;1.88;;;1.50;;
26391;SDS011;14572;43.120;1.178;2022-09-09T04:04:16;3.50;;;1.55;;
26391;SDS011;14572;43.120;1.178;2022-09-09T04:06:43;3.92;;;2.00;;
26391;SDS011;14572;43.120;1.178;2022-09-09T04:09:10;3.45;;;1.90;;
26391;SDS011;14572;43.120;1.178;2022-09-09T04:11:37;3.38;;;1.60;;
26391;SDS011;14572;43.120;1.178;2022-09-09T04:14:05;6.88;;;2.58;;
26391;SDS011;14572;43.120;1.178;2022-09-09T04:16:34;3.13;;;1.98;;
26391;SDS011;14572;43.120;1.178;2022-09-09T04:19:02;6.00;;;1.70;;
26391;SDS011;14572;43.120;1.178;2022-09-09T04:21:29;5.53;;;1.90;;
26391;SDS011;14572;43.120;1.178;2022-09-09T04:23:56;3.75;;;1.63;;
26391;SDS011;14572;43.120;1.178;2022-09-09T04:26:24;2.42;;;1.52;;
26391;SDS011;14572;43.120;1.178;2022-09-09T04:28:51;5.20;;;1.48;;
26391;SDS011;14572;43.120;1.178;2022-09-09T04:31:20;7.25;;;1.60;;
26391;SDS011;14572;43.120;1.178;2022-09-09T04:33:48;3.47;;;1.70;;
26391;SDS011;14572;43.120;1.178;2022-09-09T04:36:16;6.65;;;1.73;;
26391;SDS011;14572;43.120;1.178;2022-09-09T04:38:44;4.47;;;1.85;;
26391;SDS011;14572;43.120;1.178;2022-09-09T04:41:11;5.63;;;1.92;;
26391;SDS011;14572;43.120;1.178;2022-09-09T04:43:39;3.83;;;1.50;;
26391;SDS011;14572;43.120;1.178;2022-09-09T04:46:06;4.25;;;1.80;;
26391;SDS011;14572;43.120;1.178;2022-09-09T04:48:35;3.80;;;1.55;;
26391;SDS011;14572;43.120;1.178;2022-09-09T04:51:03;3.85;;;1.55;;
26391;SDS011;14572;43.120;1.178;2022-09-09T04:53:31;3.60;;;1.60;;
26391;SDS011;14572;43.120;1.178;2022-09-09T04:56:03;6.72;;;1.63;;
26391;SDS011;14572;43.120;1.178;2022-09-09T04:58:31;4.03;;;1.80;;
26391;SDS011;14572;43.120;1.178;2022-09-09T05:01:05;4.32;;;2.00;;
26391;SDS011;14572;43.120;1.178;2022-09-09T05:03:33;6.05;;;1.95;;
26391;SDS011;14572;43.120;1.178;2022-09-09T05:06:05;4.18;;;1.83;;
26391;SDS011;14572;43.120;1.178;2022-09-09T05:08:33;5.10;;;1.75;;
26391;SDS011;14572;43.120;1.178;2022-09-09T05:11:01;3.60;;;1.60;;
26391;SDS011;14572;43.120;1.178;2022-09-09T05:13:28;3.60;;;2.00;;
26391;SDS011;14572;43.120;1.178;2022-09-09T05:15:57;3.42;;;1.88;;
26391;SDS011;14572;43.120;1.178;2022-09-09T05:18:24;4.88;;;2.08;;
26391;SDS011;14572;43.120;1.178;2022-09-09T05:20:56;4.25;;;2.42;;
26391;SDS011;14572;43.120;1.178;2022-09-09T05:23:25;7.45;;;2.40;;
26391;SDS011;14572;43.120;1.178;2022-09-09T05:25:56;6.72;;;1.92;;
26391;SDS011;14572;43.120;1.178;2022-09-09T05:28:24;8.07;;;2.08;;
26391;SDS011;14572;43.120;1.178;2022-09-09T05:30:55;5.03;;;1.80;;
26391;SDS011;14572;43.120;1.178;2022-09-09T05:33:25;4.50;;;1.98;;
26391;SDS011;14572;43.120;1.178;2022-09-09T05:35:58;5.55;;;1.92;;
26391;SDS011;14572;43.120;1.178;2022-09-09T05:38:25;4.30;;;1.88;;
26391;SDS011;14572;43.120;1.178;2022-09-09T05:40:52;3.78;;;1.80;;
26391;SDS011;14572;43.120;1.178;2022-09-09T05:43:19;4.70;;;1.90;;
26391;SDS011;14572;43.120;1.178;2022-09-09T05:45:46;4.63;;;2.10;;
26391;SDS011;14572;43.120;1.178;2022-09-09T05:48:14;5.95;;;1.80;;
26391;SDS011;14572;43.120;1.178;2022-09-09T05:50:41;3.97;;;1.77;;
26391;SDS011;14572;43.120;1.178;2022-09-09T05:53:11;3.92;;;1.45;;
26391;SDS011;14572;43.120;1.178;2022-09-09T05:55:38;2.50;;;1.65;;
26391;SDS011;14572;43.120;1.178;2022-09-09T05:58:05;4.13;;;1.80;;
26391;SDS011;14572;43.120;1.178;2022-09-09T06:00:32;3.35;;;2.10;;
26391;SDS011;14572;43.120;1.178;2022-09-09T06:02:59;1.90;;;1.70;;
26391;SDS011;14572;43.120;1.178;2022-09-09T06:05:26;2.13;;;1.73;;
26391;SDS011;14572;43.120;1.178;2022-09-09T06:07:54;2.53;;;1.90;;
26391;SDS011;14572;43.120;1.178;2022-09-09T06:10:22;4.30;;;1.95;;
26391;SDS011;14572;43.120;1.178;2022-09-09T06:12:52;3.45;;;1.50;;
26391;SDS011;14572;43.120;1.178;2022-09-09T06:15:19;2.85;;;1.73;;
26391;SDS011;14572;43.120;1.178;2022-09-09T06:17:46;4.22;;;2.00;;
26391;SDS011;14572;43.120;1.178;2022-09-09T06:20:15;5.70;;;2.03;;
26391;SDS011;14572;43.120;1.178;2022-09-09T06:22:42;2.58;;;1.60;;
26391;SDS011;14572;43.120;1.178;2022-09-09T06:25:12;4.20;;;1.73;;
26391;SDS011;14572;43.120;1.178;2022-09-09T06:27:40;3.33;;;2.00;;
26391;SDS011;14572;43.120;1.178;2022-09-09T06:30:08;4.80;;;1.65;;
26391;SDS011;14572;43.120;1.178;2022-09-09T06:32:36;4.07;;;1.60;;
26391;SDS011;14572;43.120;1.178;2022-09-09T06:35:04;6.13;;;1.83;;
26391;SDS011;14572;43.120;1.178;2022-09-09T06:37:32;2.53;;;1.60;;
26391;SDS011;14572;43.120;1.178;2022-09-09T06:40:00;4.15;;;1.80;;
26391;SDS011;14572;43.120;1.178;2022-09-09T06:42:27;3.67;;;1.60;;
26391;SDS011;14572;43.120;1.178;2022-09-09T06:44:55;4.38;;;1.63;;
26391;SDS011;14572;43.120;1.178;2022-09-09T06:47:22;3.78;;;1.70;;
26391;SDS011;14572;43.120;1.178;2022-09-09T06:49:49;4.90;;;1.40;;
26391;SDS011;14572;43.120;1.178;2022-09-09T06:52:16;3.70;;;1.70;;
26391;SDS011;14572;43.120;1.178;2022-09-09T06:54:44;4.03;;;1.83;;
26391;SDS011;14572;43.120;1.178;2022-09-09T06:57:11;3.97;;;2.00;;
26391;SDS011;14572;43.120;1.178;2022-09-09T06:59:38;5.78;;;2.03;;
26391;SDS011;14572;43.120;1.178;2022-09-09T07:02:07;5.03;;;1.80;;
26391;SDS011;14572;43.120;1.178;2022-09-09T07:04:34;2.95;;;1.58;;
26391;SDS011;14572;43.120;1.178;2022-09-09T07:07:02;6.03;;;2.22;;
26391;SDS011;14572;43.120;1.178;2022-09-09T07:09:29;4.20;;;1.73;;
26391;SDS011;14572;43.120;1.178;2022-09-09T07:11:57;2.97;;;1.40;;
26391;SDS011;14572;43.120;1.178;2022-09-09T07:14:24;2.67;;;1.52;;
26391;SDS011;14572;43.120;1.178;2022-09-09T07:16:52;3.22;;;1.75;;
26391;SDS011;14572;43.120;1.178;2022-09-09T07:19:20;4.65;;;1.67;;
26391;SDS011;14572;43.120;1.178;2022-09-09T07:21:48;5.30;;;1.65;;
26391;SDS011;14572;43.120;1.178;2022-09-09T07:24:15;2.83;;;1.38;;
26391;SDS011;14572;43.120;1.178;2022-09-09T07:26:42;5.53;;;1.65;;
26391;SDS011;14572;43.120;1.178;2022-09-09T07:29:10;7.65;;;1.65;;
26391;SDS011;14572;43.120;1.178;2022-09-09T07:31:38;4.60;;;1.77;;
26391;SDS011;14572;43.120;1.178;2022-09-09T07:34:06;2.97;;;1.27;;
26391;SDS011;14572;43.120;1.178;2022-09-09T07:36:35;2.83;;;1.50;;
26391;SDS011;14572;43.120;1.178;2022-09-09T07:39:03;2.75;;;1.58;;
26391;SDS011;14572;43.120;1.178;2022-09-09T07:41:32;4.57;;;1.65;;
26391;SDS011;14572;43.120;1.178;2022-09-09T07:44:04;2.67;;;1.25;;
26391;SDS011;14572;43.120;1.178;2022-09-09T07:46:31;4.63;;;1.30;;
26391;SDS011;14572;43.120;1.178;2022-09-09T07:48:59;4.97;;;1.30;;
26391;SDS011;14572;43.120;1.178;2022-09-09T07:51:27;6.80;;;1.38;;
26391;SDS011;14572;43.120;1.178;2022-09-09T07:53:57;2.58;;;1.30;;
26391;SDS011;14572;43.120;1.178;2022-09-09T07:56:27;1.85;;;1.10;;
26391;SDS011;14572;43.120;1.178;2022-09-09T07:58:55;2.97;;;1.17;;
26391;SDS011;14572;43.120;1.178;2022-09-09T08:01:24;6.72;;;1.10;;
26391;SDS011;14572;43.120;1.178;2022-09-09T08:03:53;5.78;;;1.52;;
26391;SDS011;14572;43.120;1.178;2022-09-09T08:06:24;3.70;;;1.13;;
26391;SDS011;14572;43.120;1.178;2022-09-09T08:08:52;3.92;;;1.48;;
26391;SDS011;14572;43.120;1.178;2022-09-09T08:11:22;6.03;;;1.67;;
26391;SDS011;14572;43.120;1.178;2022-09-09T08:13:50;3.25;;;1.80;;
26391;SDS011;14572;43.120;1.178;2022-09-09T08:16:18;5.00;;;1.98;;
26391;SDS011;14572;43.120;1.178;2022-09-09T08:18:47;4.97;;;1.85;;
26391;SDS011;14572;43.120;1.178;2022-09-09T08:21:15;3.83;;;1.70;;
26391;SDS011;14572;43.120;1.178;2022-09-09T08:23:43;4.68;;;1.65;;
26391;SDS011;14572;43.120;1.178;2022-09-09T08:26:13;3.75;;;1.45;;
26391;SDS011;14572;43.120;1.178;2022-09-09T08:28:43;3.78;;;1.30;;
26391;SDS011;14572;43.120;1.178;2022-09-09T08:31:11;3.28;;;0.98;;
26391;SDS011;14572;43.120;1.178;2022-09-09T08:33:39;3.75;;;1.00;;
26391;SDS011;14572;43.120;1.178;2022-09-09T08:36:08;7.28;;;1.45;;
26391;SDS011;14572;43.120;1.178;2022-09-09T08:38:36;3.45;;;1.25;;
26391;SDS011;14572;43.120;1.178;2022-09-09T08:41:08;4.65;;;1.35;;
26391;SDS011;14572;43.120;1.178;2022-09-09T08:44:01;4.68;;;1.17;;
26391;SDS011;14572;43.120;1.178;2022-09-09T08:46:32;6.63;;;1.23;;
26391;SDS011;14572;43.120;1.178;2022-09-09T08:49:05;5.13;;;1.25;;
26391;SDS011;14572;43.120;1.178;2022-09-09T08:51:41;3.78;;;1.80;;
26391;SDS011;14572;43.120;1.178;2022-09-09T08:54:08;4.25;;;1.30;;
26391;SDS011;14572;43.120;1.178;2022-09-09T08:56:36;3.97;;;1.20;;
26391;SDS011;14572;43.120;1.178;2022-09-09T08:59:04;2.35;;;1.02;;
26391;SDS011;14572;43.120;1.178;2022-09-09T09:01:40;3.50;;;0.98;;
26391;SDS011;14572;43.120;1.178;2022-09-09T09:04:15;4.60;;;1.20;;
26391;SDS011;14572;43.120;1.178;2022-09-09T09:06:59;3.03;;;1.15;;
26391;SDS011;14572;43.120;1.178;2022-09-09T09:09:35;3.83;;;1.13;;
26391;SDS011;14572;43.120;1.178;2022-09-09T09:12:10;4.63;;;1.33;;
26391;SDS011;14572;43.120;1.178;2022-09-09T09:14:44;2.90;;;0.90;;
26391;SDS011;14572;43.120;1.178;2022-09-09T09:17:13;4.07;;;1.20;;
26391;SDS011;14572;43.120;1.178;2022-09-09T09:19:42;6.07;;;1.10;;
26391;SDS011;14572;43.120;1.178;2022-09-09T09:22:11;3.40;;;1.15;;
26391;SDS011;14572;43.120;1.178;2022-09-09T09:24:45;5.18;;;1.30;;
26391;SDS011;14572;43.120;1.178;2022-09-09T09:27:18;2.10;;;0.95;;
26391;SDS011;14572;43.120;1.178;2022-09-09T09:29:52;5.07;;;1.25;;
26391;SDS011;14572;43.120;1.178;2022-09-09T09:32:22;4.53;;;1.13;;
26391;SDS011;14572;43.120;1.178;2022-09-09T09:34:49;4.88;;;1.23;;
26391;SDS011;14572;43.120;1.178;2022-09-09T09:37:20;4.15;;;1.30;;
26391;SDS011;14572;43.120;1.178;2022-09-09T09:39:53;3.13;;;1.10;;
26391;SDS011;14572;43.120;1.178;2022-09-09T09:42:20;5.25;;;1.35;;
26391;SDS011;14572;43.120;1.178;2022-09-09T09:44:47;7.05;;;1.25;;
26391;SDS011;14572;43.120;1.178;2022-09-09T09:47:16;2.47;;;1.05;;
26391;SDS011;14572;43.120;1.178;2022-09-09T09:49:53;4.82;;;1.30;;
26391;SDS011;14572;43.120;1.178;2022-09-09T09:52:21;3.30;;;1.13;;
26391;SDS011;14572;43.120;1.178;2022-09-09T09:54:50;5.65;;;1.20;;
26391;SDS011;14572;43.120;1.178;2022-09-09T09:57:22;2.58;;;1.13;;
26391;SDS011;14572;43.120;1.178;2022-09-09T10:00:00;2.85;;;0.98;;
26391;SDS011;14572;43.120;1.178;2022-09-09T10:02:36;6.05;;;1.20;;
26391;SDS011;14572;43.120;1.178;2022-09-09T10:05:06;4.25;;;1.20;;
26391;SDS011;14572;43.120;1.178;2022-09-09T10:07:39;3.28;;;1.30;;
26391;SDS011;14572;43.120;1.178;2022-09-09T10:10:09;2.85;;;1.02;;
26391;SDS011;14572;43.120;1.178;2022-09-09T10:12:43;7.57;;;1.38;;
26391;SDS011;14572;43.120;1.178;2022-09-09T10:15:24;4.18;;;1.35;;
26391;SDS011;14572;43.120;1.178;2022-09-09T10:18:00;5.68;;;1.50;;
26391;SDS011;14572;43.120;1.178;2022-09-09T10:20:32;2.67;;;1.20;;
26391;SDS011;14572;43.120;1.178;2022-09-09T10:23:07;7.68;;;1.17;;
26391;SDS011;14572;43.120;1.178;2022-09-09T10:25:48;2.63;;;1.17;;
26391;SDS011;14572;43.120;1.178;2022-09-09T10:28:38;8.48;;;2.00;;
26391;SDS011;14572;43.120;1.178;2022-09-09T10:31:17;2.67;;;1.40;;
26391;SDS011;14572;43.120;1.178;2022-09-09T10:33:51;3.30;;;1.50;;
26391;SDS011;14572;43.120;1.178;2022-09-09T10:36:27;6.30;;;1.50;;
26391;SDS011;14572;43.120;1.178;2022-09-09T10:38:57;3.22;;;1.38;;
26391;SDS011;14572;43.120;1.178;2022-09-09T10:41:31;9.15;;;2.20;;
26391;SDS011;14572;43.120;1.178;2022-09-09T10:44:21;6.13;;;1.50;;
26391;SDS011;14572;43.120;1.178;2022-09-09T10:46:58;5.05;;;1.30;;
26391;SDS011;14572;43.120;1.178;2022-09-09T10:49:56;5.70;;;1.40;;
26391;SDS011;14572;43.120;1.178;2022-09-09T10:52:32;2.53;;;1.20;;
26391;SDS011;14572;43.120;1.178;2022-09-09T10:55:02;5.10;;;1.40;;
26391;SDS011;14572;43.120;1.178;2022-09-09T10:57:36;5.03;;;1.20;;
26391;SDS011;14572;43.120;1.178;2022-09-09T11:00:13;4.93;;;1.60;;
26391;SDS011;14572;43.120;1.178;2022-09-09T11:02:42;2.78;;;1.20;;
26391;SDS011;14572;43.120;1.178;2022-09-09T11:05:14;4.13;;;1.38;;
26391;SDS011;14572;43.120;1.178;2022-09-09T11:07:45;6.43;;;1.27;;
26391;SDS011;14572;43.120;1.178;2022-09-09T11:10:17;4.68;;;1.25;;
26391;SDS011;14572;43.120;1.178;2022-09-09T11:12:49;6.57;;;1.08;;
26391;SDS011;14572;43.120;1.178;2022-09-09T11:15:20;2.95;;;1.00;;
26391;SDS011;14572;43.120;1.178;2022-09-09T11:17:49;3.92;;;0.85;;
26391;SDS011;14572;43.120;1.178;2022-09-09T11:20:19;5.03;;;1.27;;
26391;SDS011;14572;43.120;1.178;2022-09-09T11:22:47;6.00;;;1.60;;
26391;SDS011;14572;43.120;1.178;2022-09-09T11:25:16;3.55;;;1.17;;
26391;SDS011;14572;43.120;1.178;2022-09-09T11:27:50;3.85;;;1.17;;
26391;SDS011;14572;43.120;1.178;2022-09-09T11:30:25;3.67;;;1.20;;
26391;SDS011;14572;43.120;1.178;2022-09-09T11:33:02;5.47;;;1.63;;
26391;SDS011;14572;43.120;1.178;2022-09-09T11:35:50;5.75;;;1.05;;
26391;SDS011;14572;43.120;1.178;2022-09-09T11:38:27;2.88;;;0.98;;
26391;SDS011;14572;43.120;1.178;2022-09-09T11:40:56;2.20;;;0.90;;
26391;SDS011;14572;43.120;1.178;2022-09-09T11:43:27;1.67;;;0.80;;
26391;SDS011;14572;43.120;1.178;2022-09-09T11:45:56;2.22;;;0.70;;
26391;SDS011;14572;43.120;1.178;2022-09-09T11:48:26;2.78;;;0.68;;
26391;SDS011;14572;43.120;1.178;2022-09-09T11:51:02;1.38;;;0.75;;
26391;SDS011;14572;43.120;1.178;2022-09-09T11:53:32;5.82;;;0.88;;
26391;SDS011;14572;43.120;1.178;2022-09-09T11:56:04;1.58;;;0.70;;
26391;SDS011;14572;43.120;1.178;2022-09-09T11:58:43;2.63;;;0.77;;
26391;SDS011;14572;43.120;1.178;2022-09-09T12:01:15;1.35;;;0.95;;
26391;SDS011;14572;43.120;1.178;2022-09-09T12:03:55;0.90;;;0.60;;
26391;SDS011;14572;43.120;1.178;2022-09-09T12:06:46;2.15;;;0.60;;
26391;SDS011;14572;43.120;1.178;2022-09-09T12:09:19;1.20;;;0.55;;
26391;SDS011;14572;43.120;1.178;2022-09-09T12:11:49;1.33;;;0.70;;
26391;SDS011;14572;43.120;1.178;2022-09-09T12:14:19;1.50;;;0.70;;
26391;SDS011;14572;43.120;1.178;2022-09-09T12:16:48;0.80;;;0.60;;
26391;SDS011;14572;43.120;1.178;2022-09-09T12:19:22;2.05;;;0.70;;
26391;SDS011;14572;43.120;1.178;2022-09-09T12:21:54;2.47;;;0.80;;
26391;SDS011;14572;43.120;1.178;2022-09-09T12:24:29;1.02;;;0.60;;
26391;SDS011;14572;43.120;1.178;2022-09-09T12:27:00;0.93;;;0.50;;
26391;SDS011;14572;43.120;1.178;2022-09-09T12:29:33;0.88;;;0.75;;
26391;SDS011;14572;43.120;1.178;2022-09-09T12:32:06;0.90;;;0.63;;
26391;SDS011;14572;43.120;1.178;2022-09-09T12:34:40;0.88;;;0.63;;
26391;SDS011;14572;43.120;1.178;2022-09-09T12:37:16;0.57;;;0.40;;
26391;SDS011;14572;43.120;1.178;2022-09-09T12:39:48;0.93;;;0.68;;
26391;SDS011;14572;43.120;1.178;2022-09-09T12:42:18;0.75;;;0.50;;
26391;SDS011;14572;43.120;1.178;2022-09-09T12:44:55;0.90;;;0.60;;
26391;SDS011;14572;43.120;1.178;2022-09-09T12:47:25;1.27;;;0.60;;
26391;SDS011;14572;43.120;1.178;2022-09-09T12:49:55;1.15;;;0.60;;
26391;SDS011;14572;43.120;1.178;2022-09-09T12:52:25;1.75;;;0.65;;
26391;SDS011;14572;43.120;1.178;2022-09-09T12:54:57;2.45;;;0.80;;
26391;SDS011;14572;43.120;1.178;2022-09-09T12:57:25;3.63;;;0.80;;
26391;SDS011;14572;43.120;1.178;2022-09-09T13:00:07;2.78;;;0.75;;
26391;SDS011;14572;43.120;1.178;2022-09-09T13:02:45;1.52;;;0.57;;
26391;SDS011;14572;43.120;1.178;2022-09-09T13:05:17;1.33;;;0.63;;
26391;SDS011;14572;43.120;1.178;2022-09-09T13:07:48;2.53;;;0.65;;
26391;SDS011;14572;43.120;1.178;2022-09-09T13:10:17;6.30;;;0.68;;
26391;SDS011;14572;43.120;1.178;2022-09-09T13:12:48;3.20;;;0.77;;
26391;SDS011;14572;43.120;1.178;2022-09-09T13:15:17;4.22;;;0.90;;
26391;SDS011;14572;43.120;1.178;2022-09-09T13:17:51;3.47;;;0.98;;
26391;SDS011;14572;43.120;1.178;2022-09-09T13:20:20;3.05;;;0.77;;
26391;SDS011;14572;43.120;1.178;2022-09-09T13:22:53;3.85;;;0.70;;
26391;SDS011;14572;43.120;1.178;2022-09-09T13:25:22;2.63;;;0.75;;
26391;SDS011;14572;43.120;1.178;2022-09-09T13:27:53;1.85;;;0.80;;
26391;SDS011;14572;43.120;1.178;2022-09-09T13:30:22;2.45;;;0.98;;
26391;SDS011;14572;43.120;1.178;2022-09-09T13:33:05;1.65;;;1.05;;
26391;SDS011;14572;43.120;1.178;2022-09-09T13:35:45;5.88;;;1.00;;
26391;SDS011;14572;43.120;1.178;2022-09-09T13:38:15;3.35;;;0.70;;
26391;SDS011;14572;43.120;1.178;2022-09-09T13:40:51;4.85;;;0.90;;
26391;SDS011;14572;43.120;1.178;2022-09-09T13:43:21;5.88;;;1.10;;
26391;SDS011;14572;43.120;1.178;2022-09-09T13:45:52;3.10;;;0.75;;
26391;SDS011;14572;43.120;1.178;2022-09-09T13:48:21;6.22;;;0.70;;
26391;SDS011;14572;43.120;1.178;2022-09-09T13:50:53;2.65;;;0.70;;
26391;SDS011;14572;43.120;1.178;2022-09-09T13:53:23;2.67;;;1.00;;
26391;SDS011;14572;43.120;1.178;2022-09-09T13:55:50;2.28;;;0.77;;
26391;SDS011;14572;43.120;1.178;2022-09-09T13:58:17;3.58;;;0.80;;
26391;SDS011;14572;43.120;1.178;2022-09-09T14:00:45;2.42;;;0.85;;
26391;SDS011;14572;43.120;1.178;2022-09-09T14:03:12;1.55;;;0.63;;
26391;SDS011;14572;43.120;1.178;2022-09-09T14:05:40;1.92;;;0.68;;
26391;SDS011;14572;43.120;1.178;2022-09-09T14:08:07;5.05;;;1.17;;
26391;SDS011;14572;43.120;1.178;2022-09-09T14:10:43;3.53;;;0.80;;
26391;SDS011;14572;43.120;1.178;2022-09-09T14:13:10;2.45;;;0.45;;
26391;SDS011;14572;43.120;1.178;2022-09-09T14:15:37;5.15;;;0.60;;
26391;SDS011;14572;43.120;1.178;2022-09-09T14:18:05;2.33;;;0.50;;
26391;SDS011;14572;43.120;1.178;2022-09-09T14:20:31;1.77;;;0.60;;
26391;SDS011;14572;43.120;1.178;2022-09-09T14:22:58;1.52;;;0.50;;
26391;SDS011;14572;43.120;1.178;2022-09-09T14:25:25;1.35;;;0.70;;
26391;SDS011;14572;43.120;1.178;2022-09-09T14:27:54;7.32;;;0.90;;
26391;SDS011;14572;43.120;1.178;2022-09-09T14:30:21;1.88;;;0.80;;
26391;SDS011;14572;43.120;1.178;2022-09-09T14:32:48;2.20;;;0.65;;
26391;SDS011;14572;43.120;1.178;2022-09-09T14:35:15;3.60;;;0.75;;
26391;SDS011;14572;43.120;1.178;2022-09-09T14:37:43;2.85;;;0.63;;
26391;SDS011;14572;43.120;1.178;2022-09-09T14:40:14;4.63;;;0.70;;
26391;SDS011;14572;43.120;1.178;2022-09-09T14:42:43;2.70;;;0.55;;
26391;SDS011;14572;43.120;1.178;2022-09-09T14:45:12;1.60;;;0.55;;
26391;SDS011;14572;43.120;1.178;2022-09-09T14:47:39;2.03;;;0.60;;
26391;SDS011;14572;43.120;1.178;2022-09-09T14:50:06;4.90;;;0.80;;
26391;SDS011;14572;43.120;1.178;2022-09-09T14:52:33;3.15;;;0.68;;
26391;SDS011;14572;43.120;1.178;2022-09-09T14:55:00;2.90;;;0.60;;
26391;SDS011;14572;43.120;1.178;2022-09-09T14:57:27;2.15;;;0.60;;
26391;SDS011;14572;43.120;1.178;2022-09-09T14:59:54;3.47;;;0.80;;
26391;SDS011;14572;43.120;1.178;2022-09-09T15:02:23;3.00;;;0.80;;
26391;SDS011;14572;43.120;1.178;2022-09-09T15:04:50;5.82;;;1.15;;
26391;SDS011;14572;43.120;1.178;2022-09-09T15:07:17;3.10;;;0.70;;